Time;durP1;ratioP1;P1;durP2;ratioP2;P2;SDS_P1;SDS_P2;PMS_P1;PMS_P2;Temp;Humidity;BMP_temperature;BMP_pressure;BME280_temperature;BME280_humidity;BME280_pressure;Samples;Min_cycle;Max_cycle;Signal;HPM_P1;HPM_P2
2022/10/03 00:02:18;;;;;;;2.40;1.60;;;;;;;14.21;65.50;99986.06;5069071;28;20072;-27
2022/10/03 00:05:05;;;;;;;3.33;1.95;;;;;;;14.44;63.84;99983.22;5068930;28;20085;-26
2022/10/03 00:07:49;;;;;;;2.65;1.70;;;;;;;14.36;65.06;99978.22;5067214;28;20064;-29
2022/10/03 00:10:37;;;;;;;2.40;1.65;;;;;;;14.36;65.03;99972.88;5068638;28;20021;-28
2022/10/03 00:13:26;;;;;;;2.63;1.60;;;;;;;14.50;64.58;99972.53;5068714;28;20485;-29
2022/10/03 00:16:03;;;;;;;2.65;1.30;;;;;;;14.45;64.36;99965.22;5019305;28;20595;-27
2022/10/03 00:18:33;;;;;;;3.42;1.48;;;;;;;14.50;64.07;99972.53;5068426;28;20083;-30
2022/10/03 00:21:18;;;;;;;3.17;1.38;;;;;;;14.43;63.82;99962.78;5068682;28;20089;-26
2022/10/03 00:23:49;;;;;;;4.50;2.17;;;;;;;14.50;64.40;99961.81;5068190;28;20492;-28
2022/10/03 00:26:29;;;;;;;2.65;1.67;;;;;;;14.61;62.98;99958.25;5050070;28;20485;-27
2022/10/03 00:29:28;;;;;;;3.20;1.50;;;;;;;14.61;63.39;99960.94;5068288;28;20032;-27
2022/10/03 00:31:59;;;;;;;2.45;1.40;;;;;;;14.44;63.69;99955.53;5049819;28;20024;-29
2022/10/03 00:34:30;;;;;;;2.67;1.40;;;;;;;14.53;63.23;99950.59;5067768;28;20028;-28
2022/10/03 00:37:22;;;;;;;2.53;1.60;;;;;;;14.42;64.04;99965.72;5067652;28;20036;-28
2022/10/03 00:40:06;;;;;;;3.50;1.40;;;;;;;14.12;65.08;99961.53;5067787;28;20031;-28
2022/10/03 00:42:59;;;;;;;2.80;1.70;;;;;;;14.28;64.96;99957.19;5067797;28;20037;-27
2022/10/03 00:45:46;;;;;;;2.58;1.50;;;;;;;14.11;65.79;99959.09;5068098;28;20033;-27
2022/10/03 00:48:30;;;;;;;1.97;1.50;;;;;;;14.34;65.14;99964.25;5067954;28;20032;-27
2022/10/03 00:51:04;;;;;;;3.35;2.00;;;;;;;13.85;65.86;99932.69;5068250;28;20265;-29
2022/10/03 00:53:40;;;;;;;2.72;1.63;;;;;;;13.90;66.63;99964.13;5067631;28;20032;-29
2022/10/03 00:56:23;;;;;;;3.70;1.48;;;;;;;13.90;66.55;99955.28;5067464;28;20093;-26
2022/10/03 00:59:27;;;;;;;2.28;1.60;;;;;;;13.66;68.13;99955.41;5065996;28;20167;-26
2022/10/03 01:01:54;;;;;;;4.35;1.60;;;;;;;13.10;68.23;99946.31;5067110;28;20028;-31
2022/10/03 01:04:34;;;;;;;2.65;1.60;;;;;;;12.98;69.44;99955.19;5067244;28;20037;-29
2022/10/03 01:07:24;;;;;;;1.52;1.42;;;;;;;13.33;68.20;99954.28;5067639;28;20061;-27
2022/10/03 01:09:53;;;;;;;9.23;1.90;;;;;;;13.52;67.42;99951.41;5067203;28;20071;-27
2022/10/03 01:12:43;;;;;;;2.60;2.17;;;;;;;13.75;67.60;99932.53;5065490;28;20040;-26
2022/10/03 01:15:37;;;;;;;3.58;1.73;;;;;;;13.80;66.81;99931.78;5067487;28;20021;-29
2022/10/03 01:18:19;;;;;;;2.38;1.55;;;;;;;13.84;66.31;99911.50;5048881;28;20119;-27
2022/10/03 01:20:51;;;;;;;3.83;1.88;;;;;;;13.57;68.02;99920.16;5067544;28;20389;-29
2022/10/03 01:23:34;;;;;;;3.25;2.08;;;;;;;13.75;67.85;99929.00;5067288;28;20047;-28
2022/10/03 01:26:21;;;;;;;6.15;1.70;;;;;;;14.01;66.66;99923.00;5067046;28;20020;-27
2022/10/03 01:32:21;;;;;;;4.13;1.77;;;;;;;13.84;68.04;99919.53;5040659;28;20158;-31
2022/10/03 01:34:53;;;;;;;1.90;1.50;;;;;;;13.61;68.59;99920.50;5066937;28;20546;-27
2022/10/03 01:37:36;;;;;;;2.63;1.95;;;;;;;13.60;69.29;99916.97;5067060;28;20492;-27
2022/10/03 01:40:16;;;;;;;2.95;1.92;;;;;;;13.56;68.89;99921.22;5066666;28;20032;-29
2022/10/03 01:43:20;;;;;;;2.65;1.90;;;;;;;13.33;69.44;99927.50;5066786;28;20020;-28
2022/10/03 01:46:05;;;;;;;4.32;1.88;;;;;;;13.09;71.02;99923.28;5047914;28;20046;-30
2022/10/03 01:48:37;;;;;;;3.15;1.90;;;;;;;13.26;69.51;99916.91;5066968;28;20067;-29
2022/10/03 01:51:07;;;;;;;2.97;1.98;;;;;;;13.22;69.00;99899.72;5066912;28;20036;-28
2022/10/03 01:54:00;;;;;;;3.85;1.90;;;;;;;13.05;71.61;99920.25;5066846;28;20024;-29
2022/10/03 01:56:28;;;;;;;4.38;2.17;;;;;;;12.65;72.53;99892.47;5066722;28;20044;-29
2022/10/03 01:59:17;;;;;;;2.50;1.90;;;;;;;12.67;72.94;99908.28;5066802;28;20036;-28
2022/10/03 02:02:01;;;;;;;3.83;2.10;;;;;;;12.54;74.77;99913.88;5066817;28;20042;-27
2022/10/03 02:04:26;;;;;;;3.45;2.25;;;;;;;12.53;73.55;99912.28;5066923;28;20040;-29
2022/10/03 02:07:20;;;;;;;5.22;2.38;;;;;;;13.11;70.66;99907.78;5066706;28;20051;-27
2022/10/03 02:09:58;;;;;;;4.40;2.50;;;;;;;12.69;72.23;99900.00;5064349;28;20075;-27
2022/10/03 02:12:33;;;;;;;3.53;2.00;;;;;;;12.76;71.80;99884.63;5066791;28;20492;-28
2022/10/03 02:15:48;;;;;;;3.90;2.35;;;;;;;12.96;71.04;99881.56;5065497;28;20064;-29
2022/10/03 02:18:22;;;;;;;6.15;2.50;;;;;;;12.95;69.98;99901.31;4953708;28;20090;-32
2022/10/03 02:20:53;;;;;;;10.20;4.28;;;;;;;12.94;69.76;99902.38;5050461;28;20041;-28
2022/10/03 02:23:30;;;;;;;6.40;3.13;;;;;;;12.91;70.59;99913.56;5048526;28;20036;-27
2022/10/03 02:26:13;;;;;;;10.73;3.33;;;;;;;12.66;70.80;99895.94;5066541;28;20028;-31
2022/10/03 02:29:30;;;;;;;6.97;3.40;;;;;;;12.86;70.94;99916.94;5065244;28;20048;-29
2022/10/03 02:32:05;;;;;;;11.23;3.75;;;;;;;12.86;70.74;99917.75;4984286;28;20034;-29
2022/10/03 02:34:46;;;;;;;8.50;3.95;;;;;;;12.81;70.42;99920.34;5063476;28;20076;-26
2022/10/03 02:37:32;;;;;;;9.23;4.03;;;;;;;12.63;71.03;99912.47;5066538;28;20063;-28
2022/10/03 02:40:31;;;;;;;13.63;5.10;;;;;;;12.61;71.45;99914.59;5066353;28;20400;-29
2022/10/03 02:43:31;;;;;;;8.63;4.22;;;;;;;12.57;72.77;99916.91;5066686;28;20066;-27
2022/10/03 02:46:15;;;;;;;5.03;2.78;;;;;;;12.43;73.01;99918.22;5066443;28;20025;-27
2022/10/03 02:49:00;;;;;;;5.88;2.40;;;;;;;12.52;72.90;99924.00;5066576;28;20039;-27
2022/10/03 02:52:07;;;;;;;5.00;2.13;;;;;;;12.60;72.93;99924.44;5024873;28;20044;-29
2022/10/03 02:54:44;;;;;;;8.80;2.95;;;;;;;12.54;72.98;99925.38;4984558;28;20042;-29
2022/10/03 02:57:47;;;;;;;5.45;2.85;;;;;;;12.32;73.40;99927.88;5061729;28;20044;-28
2022/10/03 03:00:21;;;;;;;4.70;2.40;;;;;;;12.14;74.42;99922.66;5069789;28;20039;-28
2022/10/03 03:03:08;;;;;;;3.75;1.90;;;;;;;12.28;73.72;99929.38;5069986;28;20029;-27
2022/10/03 03:05:39;;;;;;;3.25;1.95;;;;;;;11.98;75.59;99927.63;5068534;28;20029;-27
2022/10/03 03:08:26;;;;;;;4.05;2.10;;;;;;;11.97;76.28;99919.84;5069359;28;20143;-29
2022/10/03 03:11:08;;;;;;;3.85;1.90;;;;;;;11.80;77.41;99895.63;5069728;28;20028;-34
2022/10/03 03:13:39;;;;;;;4.97;2.03;;;;;;;12.18;75.96;99905.09;5069631;28;20036;-28
2022/10/03 03:16:18;;;;;;;2.83;1.92;;;;;;;12.36;75.09;99904.97;5069485;28;20597;-28
2022/10/03 03:19:12;;;;;;;3.95;2.00;;;;;;;12.48;73.73;99890.75;5069533;28;20028;-27
2022/10/03 03:21:57;;;;;;;4.45;2.25;;;;;;;12.29;73.68;99888.22;5069827;28;20056;-30
2022/10/03 03:24:54;;;;;;;3.08;2.10;;;;;;;12.31;73.65;99894.16;5069555;28;20032;-27
2022/10/03 03:27:32;;;;;;;4.20;2.60;;;;;;;12.62;72.15;99889.44;5069293;28;20052;-29
2022/10/03 03:30:09;;;;;;;5.32;2.53;;;;;;;12.50;72.62;99888.66;5069310;28;20036;-27
2022/10/03 03:32:54;;;;;;;3.63;2.30;;;;;;;12.68;72.40;99885.81;5069474;28;20907;-27
2022/10/03 03:35:37;;;;;;;6.43;2.40;;;;;;;12.25;74.35;99881.72;5069319;28;20028;-29
2022/10/03 03:38:08;;;;;;;4.47;2.38;;;;;;;12.09;75.61;99880.56;5069025;28;20033;-28
2022/10/03 03:40:55;;;;;;;5.78;2.60;;;;;;;12.08;74.47;99856.75;5069728;28;20036;-27
2022/10/03 03:43:43;;;;;;;5.20;2.67;;;;;;;11.71;76.49;99854.25;5069239;28;20032;-29
2022/10/03 03:46:30;;;;;;;6.18;3.03;;;;;;;11.60;76.12;99854.03;5069104;28;20033;-28
2022/10/03 03:49:29;;;;;;;7.22;3.22;;;;;;;11.06;77.66;99842.53;5068995;28;20031;-30
2022/10/03 03:52:03;;;;;;;3.78;2.22;;;;;;;11.10;77.09;99862.41;5069030;28;20036;-27
2022/10/03 03:54:33;;;;;;;6.70;2.38;;;;;;;11.13;78.38;99845.91;5068647;28;20020;-27
2022/10/03 03:57:10;;;;;;;5.10;2.58;;;;;;;11.47;77.55;99851.56;5069156;28;20047;-28
2022/10/03 04:00:02;;;;;;;4.35;2.88;;;;;;;11.71;77.14;99832.88;5068961;28;20028;-29
2022/10/03 04:02:50;;;;;;;4.50;2.45;;;;;;;12.03;76.26;99841.41;5068818;28;20052;-27
2022/10/03 04:05:29;;;;;;;6.10;2.40;;;;;;;11.51;78.93;99836.72;5069046;28;20037;-29
2022/10/03 04:08:11;;;;;;;5.35;2.40;;;;;;;11.38;78.93;99804.88;5067861;28;20049;-28
2022/10/03 04:11:11;;;;;;;8.88;2.72;;;;;;;11.88;78.23;99839.19;5068787;28;20029;-31
2022/10/03 04:14:04;;;;;;;6.05;2.38;;;;;;;11.57;78.58;99808.28;5068675;28;20518;-31
2022/10/03 04:19:25;;;;;;;8.07;2.58;;;;;;;12.11;77.22;99845.59;5068495;28;20043;-30
2022/10/03 04:22:11;;;;;;;6.43;2.50;;;;;;;12.25;75.89;99844.28;5066786;28;20036;-28
2022/10/03 04:25:41;;;;;;;6.45;2.85;;;;;;;12.02;77.99;99832.56;5068003;28;20510;-29
2022/10/03 04:28:34;;;;;;;6.47;3.35;;;;;;;11.81;79.26;99830.44;4973451;28;20077;-27
2022/10/03 04:31:32;;;;;;;4.82;2.53;;;;;;;11.68;78.51;99831.50;5068257;28;20052;-28
2022/10/03 04:34:34;;;;;;;8.05;3.00;;;;;;;11.85;77.62;99815.63;5023201;28;20044;-27
2022/10/03 04:37:05;;;;;;;5.65;3.08;;;;;;;12.39;75.20;99853.69;5068399;28;20480;-28
2022/10/03 04:39:54;;;;;;;5.75;2.63;;;;;;;12.40;76.73;99865.19;5067946;28;20226;-28
2022/10/03 04:42:35;;;;;;;4.15;2.40;;;;;;;12.35;76.94;99852.53;5068116;28;20063;-31
2022/10/03 04:45:03;;;;;;;7.80;3.10;;;;;;;12.43;76.56;99860.19;5068161;28;20089;-27
2022/10/03 04:47:41;;;;;;;7.60;2.90;;;;;;;12.10;77.70;99822.59;5067784;28;20032;-26
2022/10/03 04:50:35;;;;;;;4.15;2.75;;;;;;;12.50;76.25;99849.34;5067667;28;20866;-27
2022/10/03 04:53:22;;;;;;;4.22;2.65;;;;;;;12.86;73.91;99850.84;5067731;28;20493;-27
2022/10/03 04:55:55;;;;;;;5.43;2.65;;;;;;;12.69;76.49;99835.78;5067771;28;20043;-28
2022/10/03 04:58:29;;;;;;;4.53;2.95;;;;;;;12.99;73.68;99824.84;5067652;28;20036;-27
2022/10/03 05:01:07;;;;;;;5.93;2.80;;;;;;;13.36;72.61;99824.44;5067922;28;20039;-30
2022/10/03 05:04:00;;;;;;;5.77;2.93;;;;;;;13.55;71.30;99828.50;5067749;28;20033;-31
2022/10/03 05:06:36;;;;;;;13.73;3.30;;;;;;;13.37;71.64;99810.81;5066093;28;20322;-28
2022/10/03 05:09:16;;;;;;;4.82;2.70;;;;;;;13.64;71.71;99845.78;5068051;28;20094;-26
2022/10/03 05:11:54;;;;;;;5.68;2.65;;;;;;;13.70;72.36;99870.00;5067353;28;20032;-29
2022/10/03 05:14:38;;;;;;;6.32;4.95;;;;;;;13.61;73.89;99861.56;5049561;28;20078;-27
2022/10/03 05:17:25;;;;;;;7.28;4.45;;;;;;;13.54;74.23;99859.00;5067533;28;20097;-27
2022/10/03 05:19:50;;;;;;;12.03;5.60;;;;;;;13.75;73.47;99867.38;5067132;28;20111;-27
2022/10/03 05:22:40;;;;;;;8.45;4.38;;;;;;;13.39;75.31;99853.41;5067176;28;20127;-28
2022/10/03 05:25:28;;;;;;;7.60;3.55;;;;;;;13.35;75.80;99876.38;5067119;28;20452;-31
2022/10/03 05:28:11;;;;;;;6.53;4.07;;;;;;;13.56;76.18;99874.84;5067117;28;20036;-27
2022/10/03 05:31:19;;;;;;;9.98;3.42;;;;;;;13.78;74.30;99843.59;5067038;28;20282;-27
2022/10/03 05:34:03;;;;;;;9.00;3.45;;;;;;;14.13;73.51;99863.13;5067106;28;20037;-28
2022/10/03 05:36:52;;;;;;;8.23;3.35;;;;;;;14.21;73.34;99868.06;5067273;28;20033;-31
2022/10/03 05:39:25;;;;;;;8.38;3.40;;;;;;;14.30;72.15;99869.22;5067242;28;20052;-27
2022/10/03 05:42:04;;;;;;;7.60;3.33;;;;;;;14.53;70.14;99868.19;5067246;28;20034;-27
2022/10/03 05:44:49;;;;;;;6.80;3.08;;;;;;;14.23;71.64;99852.53;5067304;28;20089;-27
2022/10/03 05:47:44;;;;;;;7.40;3.25;;;;;;;14.36;72.91;99860.19;5048638;28;20017;-28
2022/10/03 05:50:28;;;;;;;6.72;3.53;;;;;;;14.53;69.12;99870.88;5066765;28;20104;-27
2022/10/03 05:53:23;;;;;;;6.35;3.78;;;;;;;14.51;70.34;99862.28;5048903;28;20765;-27
2022/10/03 05:56:04;;;;;;;10.25;3.83;;;;;;;14.80;69.06;99870.97;5066963;28;20036;-27
2022/10/03 05:58:32;;;;;;;9.45;3.55;;;;;;;14.71;69.99;99877.84;5048682;28;20089;-28
2022/10/03 06:01:16;;;;;;;;;;;;;;;14.77;70.16;99876.00;5067353;28;20063;-27
2022/10/03 06:04:00;;;;;;;5.32;2.50;;;;;;;15.12;69.05;99880.97;5066615;28;19921;-28
2022/10/03 06:07:11;;;;;;;9.73;3.10;;;;;;;15.24;70.18;99878.94;5066630;28;20861;-28
2022/10/03 06:09:48;;;;;;;5.72;3.45;;;;;;;15.25;71.40;99872.50;5038428;28;20141;-28
2022/10/03 06:12:36;;;;;;;4.93;3.20;;;;;;;15.13;72.49;99876.41;5066064;28;20036;-30
2022/10/03 06:15:13;;;;;;;8.77;3.80;;;;;;;14.73;73.56;99870.34;5066351;28;20031;-28
2022/10/03 06:18:02;;;;;;;6.22;3.78;;;;;;;14.89;72.43;99867.81;5066874;28;20443;-30
2022/10/03 06:20:54;;;;;;;7.20;4.78;;;;;;;14.76;72.93;99869.84;5066157;28;20024;-28
2022/10/03 06:23:28;;;;;;;7.60;4.72;;;;;;;14.87;73.13;99862.69;5066443;28;20032;-27
2022/10/03 06:26:31;;;;;;;7.03;4.45;;;;;;;14.79;73.26;99853.25;5066547;28;20052;-29
2022/10/03 06:29:08;;;;;;;8.93;4.35;;;;;;;14.99;72.88;99866.06;5066287;28;20028;-27
2022/10/03 06:36:21;;;;;;;11.00;4.83;;;;;;;15.16;71.33;99865.13;4843768;27;8270580;-31
2022/10/03 06:39:17;;;;;;;7.82;4.50;;;;;;;15.65;70.59;99862.34;5104563;28;20071;-31
2022/10/03 06:42:17;;;;;;;7.22;4.28;;;;;;;15.75;69.50;99881.28;5120486;28;20099;-31
2022/10/03 06:45:20;;;;;;;8.38;3.58;;;;;;;15.86;69.03;99871.41;5104653;28;20099;-28
2022/10/03 06:48:25;;;;;;;5.43;3.42;;;;;;;15.71;68.23;99871.25;5104583;28;20020;-27
2022/10/03 06:51:12;;;;;;;7.85;3.63;;;;;;;15.74;69.16;99873.47;5120065;28;20069;-28
2022/10/03 06:54:15;;;;;;;6.65;3.92;;;;;;;15.89;67.72;99870.88;5104545;28;20505;-29
2022/10/03 06:57:31;;;;;;;15.13;5.78;;;;;;;16.07;66.87;99867.78;5104161;28;20077;-27
2022/10/03 07:00:21;;;;;;;11.02;3.60;;;;;;;15.98;67.39;99831.69;5103236;28;20039;-28
2022/10/03 07:02:50;;;;;;;17.02;4.78;;;;;;;16.24;65.67;99845.25;5104643;28;20077;-31
2022/10/03 07:05:34;;;;;;;11.35;4.68;;;;;;;16.23;65.37;99849.03;5104031;28;20031;-28
2022/10/03 07:08:24;;;;;;;9.50;3.90;;;;;;;16.40;64.77;99849.63;5104191;28;20032;-32
2022/10/03 07:10:55;;;;;;;6.28;3.97;;;;;;;16.62;63.77;99851.34;5103935;28;20110;-30
2022/10/03 07:13:27;;;;;;;7.43;3.25;;;;;;;16.68;63.39;99847.59;5103958;28;20054;-27
2022/10/03 07:16:01;;;;;;;8.13;2.90;;;;;;;16.77;63.59;99847.91;5103698;28;20024;-27
2022/10/03 07:18:55;;;;;;;5.72;2.65;;;;;;;17.04;61.89;99850.41;5104084;28;20107;-26
2022/10/03 07:21:20;;;;;;;5.85;2.55;;;;;;;17.14;59.83;99831.59;5119479;28;20078;-29
2022/10/03 07:24:24;;;;;;;5.68;2.40;;;;;;;17.11;59.00;99837.50;5103610;28;20415;-28
2022/10/03 07:27:03;;;;;;;7.88;2.53;;;;;;;17.01;58.09;99826.69;5104096;28;20020;-29
2022/10/03 07:29:37;;;;;;;8.35;4.30;;;;;;;17.61;56.42;99841.28;5104027;28;20036;-27
2022/10/03 07:32:31;;;;;;;13.05;7.97;;;;;;;17.80;53.93;99827.25;5103756;28;20035;-29
2022/10/03 07:35:14;;;;;;;4.35;2.72;;;;;;;18.16;52.17;99860.34;5118869;28;20070;-28
2022/10/03 07:40:54;;;;;;;5.75;3.17;;;;;;;18.77;49.55;99851.19;5124050;28;20034;-28
2022/10/03 07:43:48;;;;;;;5.10;1.70;;;;;;;19.25;50.58;99851.47;5123690;28;20059;-31
2022/10/03 07:46:55;;;;;;;3.35;1.80;;;;;;;19.24;49.02;99849.84;5113791;28;20031;-30
2022/10/03 07:49:45;;;;;;;15.13;10.80;;;;;;;19.41;45.98;99854.88;5108957;28;20036;-29
2022/10/03 07:52:23;;;;;;;4.95;1.67;;;;;;;19.43;44.44;99851.88;5110115;28;20557;-29
2022/10/03 07:55:25;;;;;;;4.03;1.65;;;;;;;19.46;43.65;99854.81;5091310;28;20024;-31
2022/10/03 07:58:09;;;;;;;10.98;8.52;;;;;;;19.71;43.08;99846.81;5109352;28;20061;-27
2022/10/03 08:00:53;;;;;;;6.20;4.28;;;;;;;20.03;43.16;99844.31;5091493;28;20019;-28
2022/10/03 08:03:47;;;;;;;3.83;2.05;;;;;;;20.40;42.13;99834.69;5109987;28;20024;-27
2022/10/03 08:06:22;;;;;;;7.68;3.10;;;;;;;20.48;42.13;99834.03;5109679;28;20051;-28
2022/10/03 08:08:58;;;;;;;8.27;4.75;;;;;;;20.55;43.76;99832.88;5109789;28;20058;-27
2022/10/03 08:11:57;;;;;;;10.07;4.75;;;;;;;20.66;43.27;99842.53;5110034;28;20027;-27
2022/10/03 08:14:32;;;;;;;3.65;1.55;;;;;;;20.31;43.50;99844.56;5109374;28;20736;-28
2022/10/03 08:17:20;;;;;;;3.38;1.75;;;;;;;20.24;42.75;99846.81;5109424;28;20034;-31
2022/10/03 08:20:12;;;;;;;5.25;2.50;;;;;;;20.43;43.46;99852.25;5090741;28;20032;-31
2022/10/03 08:22:53;;;;;;;7.80;2.50;;;;;;;20.45;42.83;99845.47;5109100;28;20051;-28
2022/10/03 08:25:49;;;;;;;8.48;6.18;;;;;;;20.75;42.74;99851.59;5091157;28;20027;-30
2022/10/03 08:28:27;;;;;;;9.20;4.47;;;;;;;20.78;41.99;99852.91;5109579;28;20016;-27
2022/10/03 08:31:07;;;;;;;11.45;8.18;;;;;;;20.94;43.03;99861.66;5109316;28;20038;-28
2022/10/03 08:33:45;;;;;;;9.75;6.20;;;;;;;20.83;42.67;99864.50;5090336;28;20044;-29
2022/10/03 08:36:34;;;;;;;8.25;4.00;;;;;;;20.68;43.40;99853.88;5109147;28;20108;-30
2022/10/03 08:39:34;;;;;;;10.82;3.92;;;;;;;20.48;43.46;99839.47;5109214;28;20029;-30
2022/10/03 08:42:18;;;;;;;7.53;4.57;;;;;;;20.51;44.80;99848.09;5090804;28;20229;-27
2022/10/03 08:44:55;;;;;;;7.72;4.40;;;;;;;20.33;44.75;99839.66;5109134;28;20044;-28
2022/10/03 08:47:51;;;;;;;6.93;4.80;;;;;;;20.30;44.23;99847.56;5090624;28;20031;-29
2022/10/03 08:50:34;;;;;;;7.47;4.40;;;;;;;20.13;47.31;99821.75;5090632;28;20035;-32
2022/10/03 08:53:09;;;;;;;7.65;3.80;;;;;;;20.18;44.06;99834.41;5108869;28;20470;-30
2022/10/03 08:55:54;;;;;;;7.80;3.90;;;;;;;20.05;46.27;99831.31;5090244;28;20498;-28
2022/10/03 08:58:38;;;;;;;6.93;3.70;;;;;;;19.94;50.21;99837.94;5107208;28;20462;-28
2022/10/03 09:01:22;;;;;;;10.55;4.70;;;;;;;19.75;53.23;99837.84;5108734;28;20032;-28
2022/10/03 09:04:09;;;;;;;8.45;4.43;;;;;;;19.74;47.64;99838.94;5089767;28;20023;-27
2022/10/03 09:07:03;;;;;;;8.07;4.37;;;;;;;19.81;52.12;99835.88;5108149;28;20040;-29
2022/10/03 09:10:06;;;;;;;10.07;4.85;;;;;;;19.75;57.59;99835.13;5097043;28;20100;-28
2022/10/03 09:13:02;;;;;;;8.88;4.85;;;;;;;19.70;56.84;99834.38;5108377;28;20031;-31
2022/10/03 09:16:06;;;;;;;7.88;4.40;;;;;;;19.73;49.16;99833.81;5108339;28;20027;-30
2022/10/03 09:18:44;;;;;;;8.60;4.20;;;;;;;19.71;50.68;99855.72;5093707;28;20111;-30
2022/10/03 09:21:21;;;;;;;;;;;;;;;19.71;50.12;99857.63;5107839;28;20028;-33
2022/10/03 09:24:13;;;;;;;5.85;3.53;;;;;;;19.82;50.10;99842.94;5107183;28;19918;-32
2022/10/03 09:27:01;;;;;;;7.97;3.40;;;;;;;19.85;45.68;99848.56;5107752;28;20063;-31
2022/10/03 09:29:48;;;;;;;6.45;3.42;;;;;;;19.79;48.13;99848.91;5107068;28;20038;-29
2022/10/03 09:32:48;;;;;;;9.43;4.77;;;;;;;20.01;50.41;99851.13;5106936;28;20114;-30
2022/10/03 09:35:25;;;;;;;7.50;4.43;;;;;;;20.17;45.80;99852.56;5105697;28;20312;-29
2022/10/03 09:38:22;;;;;;;51.42;24.02;;;;;;;20.38;48.81;99855.84;5106503;28;20052;-29
2022/10/03 09:40:53;;;;;;;45.83;22.52;;;;;;;20.07;47.04;99845.34;5107002;28;20032;-30
2022/10/03 09:43:56;;;;;;;36.20;18.33;;;;;;;20.55;46.91;99857.25;5106634;28;20053;-30
2022/10/03 09:46:30;;;;;;;15.07;8.00;;;;;;;20.60;46.46;99849.13;5106832;28;20027;-31
2022/10/03 09:49:17;;;;;;;8.35;4.57;;;;;;;20.74;44.79;99858.13;5106439;28;20047;-27
2022/10/03 09:51:56;;;;;;;13.13;5.78;;;;;;;20.65;45.75;99855.25;5106545;28;20798;-27
2022/10/03 09:54:52;;;;;;;9.25;4.57;;;;;;;20.28;47.04;99843.22;5105057;28;20122;-27
2022/10/03 09:57:40;;;;;;;8.52;3.65;;;;;;;20.36;46.08;99849.91;5106474;28;20038;-28
2022/10/03 10:00:20;;;;;;;6.85;3.38;;;;;;;20.25;47.57;99845.72;5106581;28;20120;-28
2022/10/03 10:03:30;;;;;;;189.55;75.85;;;;;;;20.46;46.71;99855.19;5106218;28;20019;-29
2022/10/03 10:06:29;;;;;;;18.58;8.95;;;;;;;20.47;47.20;99854.13;5076599;28;20074;-29
2022/10/03 10:09:18;;;;;;;12.98;5.68;;;;;;;20.54;44.74;99834.78;5105825;28;20493;-28
2022/10/03 10:12:01;;;;;;;5.50;2.55;;;;;;;20.36;45.31;99824.72;5087622;28;20028;-28
2022/10/03 10:15:17;;;;;;;4.05;2.20;;;;;;;20.51;46.63;99848.09;5087573;28;20411;-28
2022/10/03 10:18:04;;;;;;;2.83;1.60;;;;;;;20.51;46.06;99837.28;5062639;28;20036;-29
2022/10/03 10:20:53;;;;;;;3.88;1.77;;;;;;;20.35;47.54;99842.88;5063188;28;20129;-29
2022/10/03 10:23:42;;;;;;;7.03;2.60;;;;;;;20.27;48.37;99838.91;5061253;28;20036;-30
2022/10/03 10:26:20;;;;;;;5.82;1.98;;;;;;;20.21;47.64;99850.91;5106637;28;20780;-28
2022/10/03 10:28:46;;;;;;;;;;;;;;;20.09;50.41;99852.41;5107144;28;20087;-28
2022/10/03 10:31:35;;;;;;;3.92;1.90;;;;;;;20.41;48.91;99855.28;5106399;28;19912;-28
2022/10/03 10:34:25;;;;;;;11.57;4.15;;;;;;;20.27;48.28;99851.66;5106052;28;20035;-27
2022/10/03 10:37:12;;;;;;;5.63;1.80;;;;;;;20.09;47.29;99857.81;5106318;28;20176;-27
2022/10/03 10:40:02;;;;;;;5.05;2.00;;;;;;;20.13;48.81;99864.28;5087546;28;20035;-27
2022/10/03 10:43:11;;;;;;;8.52;2.47;;;;;;;20.05;48.83;99857.56;5106264;28;20028;-31
2022/10/03 10:45:47;;;;;;;138.45;68.60;;;;;;;20.03;50.88;99860.56;5106129;28;20047;-30
2022/10/03 10:48:53;;;;;;;47.65;24.70;;;;;;;19.90;51.47;99828.78;5087658;28;20034;-29
2022/10/03 10:51:45;;;;;;;49.50;22.15;;;;;;;20.01;52.68;99862.75;5105848;28;20855;-30
2022/10/03 10:54:48;;;;;;;146.35;65.82;;;;;;;19.99;51.42;99856.00;5105947;28;20465;-27
2022/10/03 10:57:51;;;;;;;36.25;17.42;;;;;;;19.76;50.72;99852.19;5106105;28;20065;-28
2022/10/03 11:00:47;;;;;;;10.23;4.43;;;;;;;19.68;55.84;99854.38;5087537;28;20035;-27
2022/10/03 11:03:21;;;;;;;38.15;15.57;;;;;;;19.41;57.43;99851.34;5105758;28;20506;-28
2022/10/03 11:05:59;;;;;;;36.58;11.80;;;;;;;19.63;56.35;99849.00;5105519;28;20078;-28
2022/10/03 11:08:36;;;;;;;29.92;10.20;;;;;;;19.41;62.34;99856.75;5105619;28;20110;-31
2022/10/03 11:11:30;;;;;;;5.97;2.53;;;;;;;19.27;61.15;99860.13;5105826;28;20043;-28
2022/10/03 11:14:05;;;;;;;9.10;3.30;;;;;;;18.91;67.89;99837.13;5105784;28;20110;-29
2022/10/03 11:16:34;;;;;;;5.53;2.53;;;;;;;19.18;64.41;99852.88;5087488;28;20474;-27
2022/10/03 11:19:15;;;;;;;22.35;9.75;;;;;;;19.36;69.21;99854.09;5087469;28;20127;-29
2022/10/03 11:22:03;;;;;;;6.82;3.42;;;;;;;19.54;65.41;99852.63;5108033;28;20031;-28
2022/10/03 11:24:43;;;;;;;6.38;2.65;;;;;;;19.74;66.64;99838.13;5109320;28;20032;-29
2022/10/03 11:27:43;;;;;;;6.95;2.20;;;;;;;19.98;63.66;99847.09;5110398;28;20521;-29
2022/10/03 11:30:20;;;;;;;7.20;2.60;;;;;;;19.78;63.69;99850.00;5109974;28;20545;-31
2022/10/03 11:33:12;;;;;;;9.05;3.78;;;;;;;19.63;65.16;99840.88;5109917;28;20085;-31
2022/10/03 11:36:23;;;;;;;6.63;3.17;;;;;;;20.15;61.27;99851.25;5109587;28;20035;-28
2022/10/03 11:39:10;;;;;;;5.53;3.05;;;;;;;20.10;60.79;99840.47;5093144;28;20043;-28
2022/10/03 11:41:39;;;;;;;6.80;3.15;;;;;;;20.19;59.81;99853.09;5110004;28;20035;-33
2022/10/03 11:44:17;;;;;;;8.55;2.92;;;;;;;19.97;60.65;99850.09;5091669;28;20036;-31
2022/10/03 11:46:49;;;;;;;7.00;2.88;;;;;;;19.43;62.64;99863.53;5109809;28;20057;-31
2022/10/03 11:49:36;;;;;;;6.47;2.80;;;;;;;19.64;62.42;99841.72;5109872;28;20022;-27
2022/10/03 11:52:29;;;;;;;7.30;2.67;;;;;;;19.54;61.77;99848.00;5109706;28;20486;-28
2022/10/03 11:55:34;;;;;;;5.07;2.75;;;;;;;19.25;61.22;99835.25;5109518;28;20024;-27
2022/10/03 11:58:19;;;;;;;7.10;2.63;;;;;;;19.28;59.66;99856.31;5057186;28;20119;-28
2022/10/03 12:00:54;;;;;;;6.90;2.50;;;;;;;18.86;60.97;99860.38;5077555;28;20072;-28
2022/10/03 12:03:30;;;;;;;6.30;3.53;;;;;;;19.04;61.42;99837.31;5109366;28;20028;-28
2022/10/03 12:09:19;;;;;;;7.03;3.00;;;;;;;18.89;60.93;99863.63;5109721;28;20127;-29
2022/10/03 12:12:07;;;;;;;4.95;2.58;;;;;;;19.00;60.86;99846.25;5109130;28;20109;-31
2022/10/03 12:14:39;;;;;;;8.40;3.10;;;;;;;19.06;60.65;99848.66;5109276;28;20143;-29
2022/10/03 12:17:14;;;;;;;9.10;3.13;;;;;;;19.96;58.94;99865.53;5090785;28;20023;-27
2022/10/03 12:19:52;;;;;;;10.20;3.10;;;;;;;20.86;58.49;99872.06;5108898;28;20111;-27
2022/10/03 12:22:26;;;;;;;7.07;2.75;;;;;;;21.40;54.55;99869.09;5108883;28;20023;-30
2022/10/03 12:25:01;;;;;;;4.55;2.10;;;;;;;21.58;53.79;99867.50;5090940;28;20654;-29
2022/10/03 12:27:55;;;;;;;4.93;1.98;;;;;;;21.12;53.05;99868.19;5090901;28;20043;-29
2022/10/03 12:30:21;;;;;;;2.92;1.38;;;;;;;20.36;54.50;99860.75;5090602;28;20563;-29
2022/10/03 12:33:02;;;;;;;4.03;1.85;;;;;;;20.17;55.71;99859.88;5108841;28;20039;-30
2022/10/03 12:35:54;;;;;;;3.13;1.70;;;;;;;20.23;55.69;99850.63;5108972;28;20066;-28
2022/10/03 12:38:46;;;;;;;2.97;1.60;;;;;;;21.01;55.97;99841.22;5109330;28;20418;-28
2022/10/03 12:41:23;;;;;;;4.63;1.80;;;;;;;21.68;54.03;99848.31;5108716;28;20132;-30
2022/10/03 12:44:10;;;;;;;3.30;1.80;;;;;;;22.01;51.42;99851.78;5108413;28;20058;-29
2022/10/03 12:47:03;;;;;;;4.38;1.92;;;;;;;21.62;52.91;99847.59;5108676;28;20036;-28
2022/10/03 12:49:41;;;;;;;5.10;2.53;;;;;;;22.23;51.44;99842.13;5061848;28;20425;-28
2022/10/03 12:52:18;;;;;;;3.67;1.90;;;;;;;22.52;49.52;99849.22;5108504;28;20063;-28
2022/10/03 12:55:19;;;;;;;3.65;2.00;;;;;;;22.02;50.62;99837.09;5108526;28;20410;-28
2022/10/03 12:57:53;;;;;;;5.60;2.17;;;;;;;22.00;52.53;99828.44;5107654;28;20079;-30
2022/10/03 13:00:22;;;;;;;4.05;1.50;;;;;;;22.10;50.78;99832.09;5108646;28;20099;-29
2022/10/03 13:03:17;;;;;;;3.50;1.60;;;;;;;22.16;50.88;99841.75;5108224;28;20026;-28
2022/10/03 13:06:35;;;;;;;7.45;2.30;;;;;;;22.13;51.68;99842.31;5107914;28;20664;-30
2022/10/03 13:09:15;;;;;;;4.60;2.00;;;;;;;22.78;52.29;99831.25;5017459;28;20045;-28
2022/10/03 13:12:03;;;;;;;2.85;1.98;;;;;;;22.80;49.00;99823.59;5108150;28;20016;-28
2022/10/03 13:15:06;;;;;;;5.28;2.53;;;;;;;22.22;50.71;99822.31;5107875;28;20030;-28